»·PEaware :: QXE800 KSEA-KGPI

QXE800 :: KSEA-KGPI

FLIGHT INFORMATION

Flight Status: Arrived
Operator:
Horizon Air
More flights by this operator :: More flights under this callsign
Pilot: Scott L. (17677)
Aircraft: DEHAVILLAND DASH 8 400
(DH8D)
More flights by this aircraft type
Origin: KSEA Seattle-Tacoma Intl
United States
Destination: KGPI Glacier Park Intl
United States
More flights between these airports :: More routes between these airports
Route: SEA7 ZADON ZELAK ZIRAN ZOOMR
File this flight plan on PilotEdge
Remarks:
Altitude:
(Current/Filed)
25,000ft
Speed:
(Current/Filed)
330kts
Departed: 18-Jun-20 10:21 AM
Arrived: 18-Jun-20 11:27 AM
Distance/Time
Traveled:
328nm/1:06
Distance/Time
To Go:
Arrived

Flight Plot

Page will automatically refresh every two minutes.

Flight plan parsing failed; only flown route is shown


Map Options




Map Legend


Flown Route
Filed Route
Departure Airport
Arrival Airport
Navaid (VOR, NDB)
Fix

Horizontal Profiles

Position Reports

Time Latitude Longitude Heading Altitude Ground
Speed
18-Jun-20 10:06 47.440488 -122.303791 6 335ft 0kts
18-Jun-20 10:07 47.440488 -122.303791 6 335ft 0kts
18-Jun-20 10:08 47.440488 -122.303791 6 335ft 0kts
18-Jun-20 10:09 47.440488 -122.303791 6 335ft 0kts
18-Jun-20 10:10 47.440488 -122.303791 6 335ft 0kts
18-Jun-20 10:11 47.440278 -122.303823 6 335ft 4kts
18-Jun-20 10:12 47.439775 -122.303494 283 335ft 1kts
18-Jun-20 10:13 47.439761 -122.303362 276 335ft 0kts
18-Jun-20 10:14 47.439908 -122.304627 272 335ft 4kts
18-Jun-20 10:15 47.439907 -122.304605 272 335ft 0kts
18-Jun-20 10:16 47.439792 -122.305784 233 335ft 9kts
18-Jun-20 10:17 47.436438 -122.306304 156 335ft 12kts
18-Jun-20 10:18 47.432131 -122.305983 211 335ft 17kts
18-Jun-20 10:19 47.431761 -122.306724 254 335ft 0kts
18-Jun-20 10:20 47.434660 -122.307965 359 335ft 85kts
18-Jun-20 10:21 47.482356 -122.309134 358 2431ft 193kts
18-Jun-20 10:22 47.536574 -122.308801 33 5877ft 201kts
18-Jun-20 10:23 47.535616 -122.227669 88 8633ft 216kts
18-Jun-20 10:24 47.540126 -122.134625 83 11370ft 228kts
18-Jun-20 10:25 47.545644 -122.037843 81 14083ft 236kts
18-Jun-20 10:26 47.551342 -121.936792 81 16664ft 245kts
18-Jun-20 10:27 47.557096 -121.832740 80 18891ft 253kts
18-Jun-20 10:28 47.561277 -121.724089 83 20802ft 264kts
18-Jun-20 10:29 47.560656 -121.611966 83 22463ft 272kts
18-Jun-20 10:30 47.559118 -121.497206 83 23911ft 278kts
18-Jun-20 10:31 47.557418 -121.379788 82 25171ft 285kts
18-Jun-20 10:32 47.555499 -121.253567 84 25346ft 324kts
18-Jun-20 10:33 47.553077 -121.111135 84 25337ft 348kts
18-Jun-20 10:34 47.550356 -120.961190 85 25334ft 360kts
18-Jun-20 10:35 47.547393 -120.808441 85 25297ft 367kts
18-Jun-20 10:36 47.544167 -120.652989 85 25222ft 370kts
18-Jun-20 10:37 47.540723 -120.496622 85 25227ft 369kts
18-Jun-20 10:38 47.535451 -120.341256 88 25222ft 371kts
18-Jun-20 10:39 47.528316 -120.184975 88 25224ft 371kts
18-Jun-20 10:40 47.520902 -120.028652 88 25226ft 371kts
18-Jun-20 10:41 47.513280 -119.871752 88 25221ft 371kts
18-Jun-20 10:42 47.505468 -119.714863 89 25239ft 371kts
18-Jun-20 10:43 47.497484 -119.558982 89 25229ft 371kts
18-Jun-20 10:44 47.489190 -119.401881 89 25224ft 370kts
18-Jun-20 10:45 47.480823 -119.247832 89 25231ft 370kts
18-Jun-20 10:46 47.472153 -119.091543 89 25238ft 370kts
18-Jun-20 10:47 47.463308 -118.935900 89 25248ft 370kts
18-Jun-20 10:48 47.454327 -118.781569 89 25239ft 370kts
18-Jun-20 10:49 47.445096 -118.626546 89 25240ft 370kts
18-Jun-20 10:50 47.435594 -118.470526 90 25239ft 370kts
18-Jun-20 10:51 47.426761 -118.321722 83 25251ft 366kts
18-Jun-20 10:52 47.457021 -118.177938 66 25270ft 356kts
18-Jun-20 10:53 47.490680 -118.036101 66 25267ft 358kts
18-Jun-20 10:54 47.524344 -117.893535 66 25268ft 358kts
18-Jun-20 10:55 47.557885 -117.750585 66 25264ft 358kts
18-Jun-20 10:56 47.591356 -117.606981 67 25265ft 358kts
18-Jun-20 10:57 47.624442 -117.464065 67 25266ft 358kts
18-Jun-20 10:58 47.657457 -117.320509 67 25266ft 358kts
18-Jun-20 10:59 47.690046 -117.177921 68 25270ft 357kts
18-Jun-20 11:00 47.722542 -117.034671 68 25266ft 356kts
18-Jun-20 11:01 47.754541 -116.892729 68 25264ft 356kts
18-Jun-20 11:02 47.786656 -116.749280 68 25266ft 356kts
18-Jun-20 11:04 47.818360 -116.606695 67 25265ft 355kts
18-Jun-20 11:05 47.849951 -116.463682 67 25262ft 355kts
18-Jun-20 11:06 47.879589 -116.328588 68 25264ft 355kts
18-Jun-20 11:07 47.912845 -116.175974 68 24833ft 365kts
18-Jun-20 11:08 47.945142 -116.026666 68 24083ft 374kts
18-Jun-20 11:09 47.977794 -115.874590 68 23320ft 377kts
18-Jun-20 11:10 48.010416 -115.721474 68 22556ft 379kts
18-Jun-20 11:11 48.043465 -115.567554 64 21774ft 380kts
18-Jun-20 11:12 48.075627 -115.412290 69 20999ft 383kts
18-Jun-20 11:13 48.089609 -115.254804 111 19150ft 423kts
18-Jun-20 11:14 47.988433 -115.175371 151 17636ft 423kts
18-Jun-20 11:15 47.893057 -115.065759 140 16142ft 423kts
18-Jun-20 11:16 47.842445 -114.920166 75 14564ft 408kts
18-Jun-20 11:17 47.900503 -114.776508 53 12747ft 403kts
18-Jun-20 11:18 47.962505 -114.642666 53 10618ft 360kts
18-Jun-20 11:18 48.015477 -114.551830 31 8850ft 329kts
18-Jun-20 11:20 48.095196 -114.478971 33 6618ft 196kts
18-Jun-20 11:21 48.133135 -114.439869 35 5054ft 132kts
18-Jun-20 11:21 48.167198 -114.404404 34 5144ft 230kts
18-Jun-20 11:23 48.220258 -114.349448 36 4805ft 135kts
18-Jun-20 11:23 48.245140 -114.323533 36 4333ft 125kts
18-Jun-20 11:24 48.273994 -114.293495 37 3599ft 126kts
18-Jun-20 11:26 48.306480 -114.259554 33 2975ft 76kts
18-Jun-20 11:26 48.311932 -114.253481 68 2975ft 7kts
18-Jun-20 11:27 48.310517 -114.253162 185 2974ft 8kts
18-Jun-20 11:28 48.308074 -114.253972 128 2974ft 3kts
18-Jun-20 11:29 48.307803 -114.253393 125 2974ft 0kts
18-Jun-20 11:30 48.307803 -114.253393 125 2974ft 0kts
18-Jun-20 11:31 48.307803 -114.253393 125 2974ft 0kts
18-Jun-20 11:32 48.307803 -114.253393 125 2974ft 0kts
18-Jun-20 11:33 48.307803 -114.253393 125 2974ft 0kts
18-Jun-20 11:34 48.307803 -114.253393 125 2974ft 0kts
18-Jun-20 11:35 48.307803 -114.253393 125 2974ft 0kts
18-Jun-20 11:36 48.307803 -114.253393 125 2974ft 0kts
18-Jun-20 11:37 48.307803 -114.253393 125 2974ft 0kts
18-Jun-20 11:38 48.307803 -114.253393 125 2974ft 0kts
18-Jun-20 11:39 48.307803 -114.253393 125 2974ft 0kts
18-Jun-20 11:40 48.307803 -114.253393 125 2974ft 0kts

Navigation Log

Ident Type
Flight plan parsing failed, navigation log unavailable